San Ardo, California
Current Conditions -  °F | °C
As of 11:53 PM on Thursday 23 Oct 2014 (Local Time) from KPRB Reporting Station
Clear Clear  
Wind Chill: 57°   Ceiling: Unl
Heat Index: 57°   Visibility: 10mi
Dew Point: 46°   Wind: 0mph
Humidity: 67%   Direction: NA
Pressure: 29.99"   Gusts: NA
Location:  36.02°N, 120.91°W
Report Text: KPRB 240653Z AUTO 00000KT 10SM CLR 14/08 A2999 RMK AO2 SLP151 T01390078 TSNO
Loading
Personal Weather Stations






























Interactive Weather Map
Tropical Storm Tracking
New forecast layout! Learn more

10-Day Weather Forecast

Advertisements
Track Severe Weather on mobile